sensor_id;sensor_type;location;lat;lon;timestamp;P1;durP1;ratioP1;P2;durP2;ratioP2
49384;SDS011;36795;45.028;38.968;2024-01-25T00:01:33;59.35;;;25.80;;
49384;SDS011;36795;45.028;38.968;2024-01-25T00:04:19;50.90;;;23.65;;
49384;SDS011;36795;45.028;38.968;2024-01-25T00:07:07;56.50;;;23.50;;
49384;SDS011;36795;45.028;38.968;2024-01-25T00:09:55;54.95;;;21.98;;
49384;SDS011;36795;45.028;38.968;2024-01-25T00:12:43;51.00;;;19.85;;
49384;SDS011;36795;45.028;38.968;2024-01-25T00:15:29;46.20;;;20.30;;
49384;SDS011;36795;45.028;38.968;2024-01-25T00:18:14;55.40;;;22.62;;
49384;SDS011;36795;45.028;38.968;2024-01-25T00:21:01;44.17;;;20.48;;
49384;SDS011;36795;45.028;38.968;2024-01-25T00:23:47;47.97;;;21.27;;
49384;SDS011;36795;45.028;38.968;2024-01-25T00:26:33;46.60;;;19.58;;
49384;SDS011;36795;45.028;38.968;2024-01-25T00:29:19;46.45;;;18.62;;
49384;SDS011;36795;45.028;38.968;2024-01-25T00:32:05;46.40;;;20.15;;
49384;SDS011;36795;45.028;38.968;2024-01-25T00:34:51;45.45;;;19.00;;
49384;SDS011;36795;45.028;38.968;2024-01-25T00:37:38;45.45;;;19.20;;
49384;SDS011;36795;45.028;38.968;2024-01-25T00:40:24;46.25;;;20.23;;
49384;SDS011;36795;45.028;38.968;2024-01-25T00:43:11;47.83;;;19.30;;
49384;SDS011;36795;45.028;38.968;2024-01-25T00:45:57;49.50;;;19.73;;
49384;SDS011;36795;45.028;38.968;2024-01-25T00:48:44;45.08;;;18.67;;
49384;SDS011;36795;45.028;38.968;2024-01-25T00:51:30;45.88;;;18.48;;
49384;SDS011;36795;45.028;38.968;2024-01-25T00:54:16;41.22;;;18.50;;
49384;SDS011;36795;45.028;38.968;2024-01-25T00:57:02;56.90;;;20.73;;
49384;SDS011;36795;45.028;38.968;2024-01-25T00:59:49;51.83;;;21.52;;
49384;SDS011;36795;45.028;38.968;2024-01-25T01:02:36;51.37;;;21.25;;
49384;SDS011;36795;45.028;38.968;2024-01-25T01:05:26;52.28;;;22.80;;
49384;SDS011;36795;45.028;38.968;2024-01-25T01:08:12;56.55;;;22.55;;
49384;SDS011;36795;45.028;38.968;2024-01-25T01:10:59;57.10;;;25.67;;
49384;SDS011;36795;45.028;38.968;2024-01-25T01:13:45;58.75;;;24.55;;
49384;SDS011;36795;45.028;38.968;2024-01-25T01:19:38;58.22;;;23.83;;
49384;SDS011;36795;45.028;38.968;2024-01-25T01:22:24;62.88;;;23.58;;
49384;SDS011;36795;45.028;38.968;2024-01-25T01:25:10;60.70;;;24.08;;
49384;SDS011;36795;45.028;38.968;2024-01-25T01:27:56;56.10;;;23.40;;
49384;SDS011;36795;45.028;38.968;2024-01-25T01:30:42;50.30;;;20.85;;
49384;SDS011;36795;45.028;38.968;2024-01-25T01:33:28;48.85;;;20.98;;
49384;SDS011;36795;45.028;38.968;2024-01-25T01:36:14;55.40;;;23.58;;
49384;SDS011;36795;45.028;38.968;2024-01-25T01:39:00;49.30;;;21.08;;
49384;SDS011;36795;45.028;38.968;2024-01-25T01:41:47;49.53;;;21.42;;
49384;SDS011;36795;45.028;38.968;2024-01-25T01:44:36;49.85;;;20.00;;
49384;SDS011;36795;45.028;38.968;2024-01-25T01:47:23;54.50;;;21.67;;
49384;SDS011;36795;45.028;38.968;2024-01-25T01:50:10;49.83;;;20.92;;
49384;SDS011;36795;45.028;38.968;2024-01-25T01:52:55;52.50;;;19.98;;
49384;SDS011;36795;45.028;38.968;2024-01-25T01:55:42;49.58;;;19.45;;
49384;SDS011;36795;45.028;38.968;2024-01-25T01:58:28;43.58;;;17.30;;
49384;SDS011;36795;45.028;38.968;2024-01-25T02:01:16;42.90;;;18.50;;
49384;SDS011;36795;45.028;38.968;2024-01-25T02:04:04;41.45;;;15.77;;
49384;SDS011;36795;45.028;38.968;2024-01-25T02:06:50;37.35;;;15.38;;
49384;SDS011;36795;45.028;38.968;2024-01-25T02:09:36;39.92;;;15.15;;
49384;SDS011;36795;45.028;38.968;2024-01-25T02:12:22;42.72;;;14.02;;
49384;SDS011;36795;45.028;38.968;2024-01-25T02:15:09;36.40;;;13.77;;
49384;SDS011;36795;45.028;38.968;2024-01-25T02:17:55;36.22;;;12.60;;
49384;SDS011;36795;45.028;38.968;2024-01-25T02:20:42;33.95;;;12.52;;
49384;SDS011;36795;45.028;38.968;2024-01-25T02:23:27;38.92;;;13.00;;
49384;SDS011;36795;45.028;38.968;2024-01-25T02:26:13;35.60;;;14.43;;
49384;SDS011;36795;45.028;38.968;2024-01-25T02:28:59;36.25;;;12.73;;
49384;SDS011;36795;45.028;38.968;2024-01-25T02:31:46;33.65;;;13.23;;
49384;SDS011;36795;45.028;38.968;2024-01-25T02:34:31;33.25;;;12.45;;
49384;SDS011;36795;45.028;38.968;2024-01-25T02:37:18;35.15;;;11.35;;
49384;SDS011;36795;45.028;38.968;2024-01-25T02:40:04;33.67;;;11.75;;
49384;SDS011;36795;45.028;38.968;2024-01-25T02:42:51;32.67;;;13.00;;
49384;SDS011;36795;45.028;38.968;2024-01-25T02:45:36;31.12;;;11.00;;
49384;SDS011;36795;45.028;38.968;2024-01-25T02:48:23;28.73;;;10.98;;
49384;SDS011;36795;45.028;38.968;2024-01-25T02:51:09;28.10;;;9.98;;
49384;SDS011;36795;45.028;38.968;2024-01-25T02:53:56;30.05;;;11.35;;
49384;SDS011;36795;45.028;38.968;2024-01-25T02:56:41;35.05;;;10.20;;
49384;SDS011;36795;45.028;38.968;2024-01-25T02:59:28;27.67;;;10.00;;
49384;SDS011;36795;45.028;38.968;2024-01-25T03:02:14;31.42;;;11.02;;
49384;SDS011;36795;45.028;38.968;2024-01-25T03:05:03;29.33;;;9.93;;
49384;SDS011;36795;45.028;38.968;2024-01-25T03:07:49;26.83;;;9.02;;
49384;SDS011;36795;45.028;38.968;2024-01-25T03:10:36;26.27;;;8.80;;
49384;SDS011;36795;45.028;38.968;2024-01-25T03:13:21;27.92;;;9.48;;
49384;SDS011;36795;45.028;38.968;2024-01-25T03:16:08;28.98;;;9.80;;
49384;SDS011;36795;45.028;38.968;2024-01-25T03:18:54;26.62;;;8.82;;
49384;SDS011;36795;45.028;38.968;2024-01-25T03:21:41;30.00;;;9.38;;
49384;SDS011;36795;45.028;38.968;2024-01-25T03:24:26;25.15;;;8.50;;
49384;SDS011;36795;45.028;38.968;2024-01-25T03:27:13;33.95;;;13.70;;
49384;SDS011;36795;45.028;38.968;2024-01-25T03:35:34;24.42;;;8.68;;
49384;SDS011;36795;45.028;38.968;2024-01-25T03:38:20;23.98;;;7.95;;
49384;SDS011;36795;45.028;38.968;2024-01-25T03:41:06;24.85;;;7.85;;
49384;SDS011;36795;45.028;38.968;2024-01-25T03:43:53;24.05;;;7.20;;
49384;SDS011;36795;45.028;38.968;2024-01-25T03:46:38;21.65;;;7.03;;
49384;SDS011;36795;45.028;38.968;2024-01-25T03:49:25;23.85;;;6.97;;
49384;SDS011;36795;45.028;38.968;2024-01-25T03:52:12;27.95;;;11.05;;
49384;SDS011;36795;45.028;38.968;2024-01-25T03:54:58;22.20;;;6.40;;
49384;SDS011;36795;45.028;38.968;2024-01-25T03:57:44;25.00;;;8.38;;
49384;SDS011;36795;45.028;38.968;2024-01-25T04:00:31;25.17;;;7.87;;
49384;SDS011;36795;45.028;38.968;2024-01-25T04:03:17;23.90;;;7.70;;
49384;SDS011;36795;45.028;38.968;2024-01-25T04:06:03;21.55;;;5.87;;
49384;SDS011;36795;45.028;38.968;2024-01-25T04:08:50;26.15;;;8.07;;
49384;SDS011;36795;45.028;38.968;2024-01-25T04:11:36;23.98;;;8.02;;
49384;SDS011;36795;45.028;38.968;2024-01-25T04:14:23;23.80;;;8.05;;
49384;SDS011;36795;45.028;38.968;2024-01-25T04:17:08;22.80;;;8.07;;
49384;SDS011;36795;45.028;38.968;2024-01-25T04:19:54;28.05;;;9.55;;
49384;SDS011;36795;45.028;38.968;2024-01-25T04:22:40;24.67;;;8.93;;
49384;SDS011;36795;45.028;38.968;2024-01-25T04:25:26;27.83;;;8.90;;
49384;SDS011;36795;45.028;38.968;2024-01-25T04:28:12;28.67;;;9.40;;
49384;SDS011;36795;45.028;38.968;2024-01-25T04:30:58;25.05;;;8.63;;
49384;SDS011;36795;45.028;38.968;2024-01-25T04:33:45;27.87;;;8.60;;
49384;SDS011;36795;45.028;38.968;2024-01-25T04:36:32;26.77;;;8.70;;
49384;SDS011;36795;45.028;38.968;2024-01-25T04:39:17;27.08;;;8.15;;
49384;SDS011;36795;45.028;38.968;2024-01-25T04:42:04;28.62;;;10.38;;
49384;SDS011;36795;45.028;38.968;2024-01-25T04:44:50;24.70;;;7.18;;
49384;SDS011;36795;45.028;38.968;2024-01-25T04:47:37;22.30;;;7.10;;
49384;SDS011;36795;45.028;38.968;2024-01-25T04:50:30;21.77;;;5.47;;
49384;SDS011;36795;45.028;38.968;2024-01-25T04:53:17;22.20;;;5.55;;
49384;SDS011;36795;45.028;38.968;2024-01-25T04:56:02;18.60;;;5.47;;
49384;SDS011;36795;45.028;38.968;2024-01-25T04:58:49;19.35;;;4.87;;
49384;SDS011;36795;45.028;38.968;2024-01-25T05:01:34;19.65;;;5.97;;
49384;SDS011;36795;45.028;38.968;2024-01-25T05:04:20;19.92;;;5.43;;
49384;SDS011;36795;45.028;38.968;2024-01-25T05:07:06;19.60;;;5.30;;
49384;SDS011;36795;45.028;38.968;2024-01-25T05:09:53;19.90;;;5.85;;
49384;SDS011;36795;45.028;38.968;2024-01-25T05:12:38;22.02;;;6.72;;
49384;SDS011;36795;45.028;38.968;2024-01-25T05:15:25;21.33;;;6.87;;
49384;SDS011;36795;45.028;38.968;2024-01-25T05:18:11;23.45;;;7.45;;
49384;SDS011;36795;45.028;38.968;2024-01-25T05:20:57;19.35;;;6.47;;
49384;SDS011;36795;45.028;38.968;2024-01-25T05:23:43;23.42;;;7.32;;
49384;SDS011;36795;45.028;38.968;2024-01-25T05:26:30;21.50;;;7.35;;
49384;SDS011;36795;45.028;38.968;2024-01-25T05:29:16;22.80;;;7.22;;
49384;SDS011;36795;45.028;38.968;2024-01-25T05:32:03;24.05;;;7.95;;
49384;SDS011;36795;45.028;38.968;2024-01-25T05:34:49;22.77;;;7.18;;
49384;SDS011;36795;45.028;38.968;2024-01-25T05:37:35;23.92;;;6.78;;
49384;SDS011;36795;45.028;38.968;2024-01-25T05:40:21;21.65;;;7.12;;
49384;SDS011;36795;45.028;38.968;2024-01-25T05:43:08;25.33;;;6.95;;
49384;SDS011;36795;45.028;38.968;2024-01-25T05:45:53;19.50;;;6.28;;
49384;SDS011;36795;45.028;38.968;2024-01-25T05:48:40;22.83;;;6.18;;
49384;SDS011;36795;45.028;38.968;2024-01-25T05:51:26;22.50;;;7.90;;
49384;SDS011;36795;45.028;38.968;2024-01-25T05:54:14;22.70;;;6.82;;
49384;SDS011;36795;45.028;38.968;2024-01-25T05:57:00;23.55;;;6.80;;
49384;SDS011;36795;45.028;38.968;2024-01-25T05:59:46;20.75;;;6.53;;
49384;SDS011;36795;45.028;38.968;2024-01-25T06:02:32;21.33;;;6.93;;
49384;SDS011;36795;45.028;38.968;2024-01-25T06:05:18;23.77;;;7.25;;
49384;SDS011;36795;45.028;38.968;2024-01-25T06:08:04;24.08;;;7.43;;
49384;SDS011;36795;45.028;38.968;2024-01-25T06:10:51;23.52;;;7.90;;
49384;SDS011;36795;45.028;38.968;2024-01-25T06:13:37;22.62;;;7.32;;
49384;SDS011;36795;45.028;38.968;2024-01-25T06:16:23;19.65;;;5.55;;
49384;SDS011;36795;45.028;38.968;2024-01-25T06:19:09;19.55;;;6.25;;
49384;SDS011;36795;45.028;38.968;2024-01-25T06:21:56;19.35;;;4.72;;
49384;SDS011;36795;45.028;38.968;2024-01-25T06:24:41;19.58;;;5.15;;
49384;SDS011;36795;45.028;38.968;2024-01-25T06:27:28;16.95;;;4.68;;
49384;SDS011;36795;45.028;38.968;2024-01-25T06:30:14;14.40;;;4.20;;
49384;SDS011;36795;45.028;38.968;2024-01-25T06:33:01;17.45;;;4.35;;
49384;SDS011;36795;45.028;38.968;2024-01-25T06:35:48;19.40;;;5.07;;
49384;SDS011;36795;45.028;38.968;2024-01-25T06:38:34;16.42;;;4.20;;
49384;SDS011;36795;45.028;38.968;2024-01-25T06:41:20;20.42;;;4.25;;
49384;SDS011;36795;45.028;38.968;2024-01-25T06:44:07;15.57;;;3.90;;
49384;SDS011;36795;45.028;38.968;2024-01-25T06:46:53;20.27;;;6.85;;
49384;SDS011;36795;45.028;38.968;2024-01-25T06:49:43;23.70;;;6.25;;
49384;SDS011;36795;45.028;38.968;2024-01-25T06:52:43;20.90;;;6.20;;
49384;SDS011;36795;45.028;38.968;2024-01-25T06:55:29;22.27;;;6.93;;
49384;SDS011;36795;45.028;38.968;2024-01-25T06:58:15;19.33;;;5.50;;
49384;SDS011;36795;45.028;38.968;2024-01-25T07:01:01;17.12;;;5.62;;
49384;SDS011;36795;45.028;38.968;2024-01-25T07:03:49;19.37;;;5.22;;
49384;SDS011;36795;45.028;38.968;2024-01-25T07:06:38;19.30;;;5.75;;
49384;SDS011;36795;45.028;38.968;2024-01-25T07:09:24;18.62;;;6.05;;
49384;SDS011;36795;45.028;38.968;2024-01-25T07:12:11;19.48;;;5.78;;
49384;SDS011;36795;45.028;38.968;2024-01-25T07:14:56;20.10;;;5.72;;
49384;SDS011;36795;45.028;38.968;2024-01-25T07:17:42;21.15;;;6.47;;
49384;SDS011;36795;45.028;38.968;2024-01-25T07:20:29;22.05;;;6.62;;
49384;SDS011;36795;45.028;38.968;2024-01-25T07:23:17;19.08;;;6.40;;
49384;SDS011;36795;45.028;38.968;2024-01-25T07:26:04;19.27;;;6.00;;
49384;SDS011;36795;45.028;38.968;2024-01-25T07:28:50;20.45;;;6.65;;
49384;SDS011;36795;45.028;38.968;2024-01-25T07:31:41;20.40;;;6.30;;
49384;SDS011;36795;45.028;38.968;2024-01-25T07:34:27;18.95;;;5.65;;
49384;SDS011;36795;45.028;38.968;2024-01-25T07:37:13;19.25;;;5.75;;
49384;SDS011;36795;45.028;38.968;2024-01-25T07:39:59;18.00;;;5.07;;
49384;SDS011;36795;45.028;38.968;2024-01-25T07:42:48;19.00;;;5.07;;
49384;SDS011;36795;45.028;38.968;2024-01-25T07:45:34;18.35;;;5.20;;
49384;SDS011;36795;45.028;38.968;2024-01-25T07:48:21;21.02;;;5.75;;
49384;SDS011;36795;45.028;38.968;2024-01-25T07:51:11;18.95;;;5.53;;
49384;SDS011;36795;45.028;38.968;2024-01-25T07:53:58;19.77;;;5.68;;
49384;SDS011;36795;45.028;38.968;2024-01-25T07:56:44;19.98;;;5.75;;
49384;SDS011;36795;45.028;38.968;2024-01-25T07:59:30;15.93;;;4.55;;
49384;SDS011;36795;45.028;38.968;2024-01-25T08:02:16;16.12;;;5.07;;
49384;SDS011;36795;45.028;38.968;2024-01-25T08:05:02;20.60;;;4.62;;
49384;SDS011;36795;45.028;38.968;2024-01-25T08:07:48;17.45;;;4.57;;
49384;SDS011;36795;45.028;38.968;2024-01-25T08:10:34;17.48;;;5.57;;
49384;SDS011;36795;45.028;38.968;2024-01-25T08:13:20;17.05;;;4.70;;
49384;SDS011;36795;45.028;38.968;2024-01-25T08:16:09;16.70;;;4.45;;
49384;SDS011;36795;45.028;38.968;2024-01-25T08:18:56;18.65;;;4.47;;
49384;SDS011;36795;45.028;38.968;2024-01-25T08:21:44;16.08;;;4.53;;
49384;SDS011;36795;45.028;38.968;2024-01-25T08:24:31;15.40;;;4.10;;
49384;SDS011;36795;45.028;38.968;2024-01-25T08:27:17;14.95;;;3.90;;
49384;SDS011;36795;45.028;38.968;2024-01-25T08:30:03;16.70;;;4.05;;
49384;SDS011;36795;45.028;38.968;2024-01-25T08:32:49;17.25;;;4.30;;
49384;SDS011;36795;45.028;38.968;2024-01-25T08:35:36;17.20;;;4.47;;
49384;SDS011;36795;45.028;38.968;2024-01-25T08:38:22;13.65;;;3.87;;
49384;SDS011;36795;45.028;38.968;2024-01-25T08:41:08;14.90;;;3.78;;
49384;SDS011;36795;45.028;38.968;2024-01-25T08:43:56;14.98;;;3.83;;
49384;SDS011;36795;45.028;38.968;2024-01-25T08:46:42;15.30;;;4.20;;
49384;SDS011;36795;45.028;38.968;2024-01-25T08:49:31;18.50;;;4.37;;
49384;SDS011;36795;45.028;38.968;2024-01-25T08:52:36;13.52;;;3.90;;
49384;SDS011;36795;45.028;38.968;2024-01-25T08:55:23;13.65;;;3.50;;
49384;SDS011;36795;45.028;38.968;2024-01-25T08:58:09;12.80;;;3.25;;
49384;SDS011;36795;45.028;38.968;2024-01-25T09:00:56;10.27;;;3.45;;
49384;SDS011;36795;45.028;38.968;2024-01-25T09:03:42;11.68;;;3.33;;
49384;SDS011;36795;45.028;38.968;2024-01-25T09:06:29;10.75;;;3.00;;
49384;SDS011;36795;45.028;38.968;2024-01-25T09:09:15;10.27;;;2.92;;
49384;SDS011;36795;45.028;38.968;2024-01-25T09:12:01;13.68;;;3.42;;
49384;SDS011;36795;45.028;38.968;2024-01-25T09:14:47;8.27;;;2.55;;
49384;SDS011;36795;45.028;38.968;2024-01-25T09:17:34;8.38;;;2.78;;
49384;SDS011;36795;45.028;38.968;2024-01-25T09:20:20;10.73;;;2.70;;
49384;SDS011;36795;45.028;38.968;2024-01-25T09:23:06;8.82;;;2.40;;
49384;SDS011;36795;45.028;38.968;2024-01-25T09:25:52;9.95;;;2.60;;
49384;SDS011;36795;45.028;38.968;2024-01-25T09:28:38;6.60;;;2.00;;
49384;SDS011;36795;45.028;38.968;2024-01-25T09:31:24;8.30;;;2.42;;
49384;SDS011;36795;45.028;38.968;2024-01-25T09:34:10;7.97;;;2.20;;
49384;SDS011;36795;45.028;38.968;2024-01-25T09:36:56;8.35;;;2.58;;
49384;SDS011;36795;45.028;38.968;2024-01-25T09:39:42;10.20;;;2.72;;
49384;SDS011;36795;45.028;38.968;2024-01-25T09:42:28;7.78;;;2.20;;
49384;SDS011;36795;45.028;38.968;2024-01-25T09:45:18;8.60;;;2.70;;
49384;SDS011;36795;45.028;38.968;2024-01-25T09:48:05;6.65;;;2.15;;
49384;SDS011;36795;45.028;38.968;2024-01-25T09:50:51;4.60;;;1.80;;
49384;SDS011;36795;45.028;38.968;2024-01-25T09:53:40;4.03;;;1.60;;
49384;SDS011;36795;45.028;38.968;2024-01-25T09:56:27;5.53;;;1.90;;
49384;SDS011;36795;45.028;38.968;2024-01-25T09:59:16;4.15;;;1.80;;
49384;SDS011;36795;45.028;38.968;2024-01-25T10:02:03;11.88;;;2.55;;
49384;SDS011;36795;45.028;38.968;2024-01-25T10:04:49;5.65;;;1.65;;
49384;SDS011;36795;45.028;38.968;2024-01-25T10:07:42;4.95;;;1.60;;
49384;SDS011;36795;45.028;38.968;2024-01-25T10:10:31;9.18;;;1.85;;
49384;SDS011;36795;45.028;38.968;2024-01-25T10:13:19;7.10;;;2.15;;
49384;SDS011;36795;45.028;38.968;2024-01-25T10:16:05;7.25;;;2.10;;
49384;SDS011;36795;45.028;38.968;2024-01-25T10:18:54;7.47;;;2.10;;
49384;SDS011;36795;45.028;38.968;2024-01-25T10:21:41;4.47;;;1.77;;
49384;SDS011;36795;45.028;38.968;2024-01-25T10:24:27;10.10;;;2.37;;
49384;SDS011;36795;45.028;38.968;2024-01-25T10:27:13;10.95;;;2.08;;
49384;SDS011;36795;45.028;38.968;2024-01-25T10:30:00;8.82;;;2.35;;
49384;SDS011;36795;45.028;38.968;2024-01-25T10:32:46;3.05;;;1.62;;
49384;SDS011;36795;45.028;38.968;2024-01-25T10:35:33;6.93;;;1.70;;
49384;SDS011;36795;45.028;38.968;2024-01-25T10:38:21;9.57;;;2.10;;
49384;SDS011;36795;45.028;38.968;2024-01-25T10:41:08;4.53;;;1.80;;
49384;SDS011;36795;45.028;38.968;2024-01-25T10:43:54;4.47;;;1.83;;
49384;SDS011;36795;45.028;38.968;2024-01-25T10:46:40;5.12;;;1.62;;
49384;SDS011;36795;45.028;38.968;2024-01-25T10:49:27;6.53;;;2.03;;
49384;SDS011;36795;45.028;38.968;2024-01-25T10:52:14;5.47;;;1.80;;
49384;SDS011;36795;45.028;38.968;2024-01-25T10:55:02;8.70;;;2.33;;
49384;SDS011;36795;45.028;38.968;2024-01-25T10:57:53;9.35;;;2.70;;
49384;SDS011;36795;45.028;38.968;2024-01-25T11:00:39;12.75;;;2.90;;
49384;SDS011;36795;45.028;38.968;2024-01-25T11:03:29;10.60;;;2.53;;
49384;SDS011;36795;45.028;38.968;2024-01-25T11:06:19;8.05;;;1.70;;
49384;SDS011;36795;45.028;38.968;2024-01-25T11:09:07;11.38;;;2.20;;
49384;SDS011;36795;45.028;38.968;2024-01-25T11:11:54;11.35;;;2.50;;
49384;SDS011;36795;45.028;38.968;2024-01-25T11:14:40;8.85;;;2.22;;
49384;SDS011;36795;45.028;38.968;2024-01-25T11:17:26;7.68;;;2.20;;
49384;SDS011;36795;45.028;38.968;2024-01-25T11:20:19;10.13;;;3.22;;
49384;SDS011;36795;45.028;38.968;2024-01-25T11:23:09;7.95;;;2.72;;
49384;SDS011;36795;45.028;38.968;2024-01-25T11:25:55;5.18;;;1.70;;
49384;SDS011;36795;45.028;38.968;2024-01-25T11:28:41;6.05;;;1.62;;
49384;SDS011;36795;45.028;38.968;2024-01-25T11:31:27;4.80;;;1.55;;
49384;SDS011;36795;45.028;38.968;2024-01-25T11:34:14;10.75;;;2.30;;
49384;SDS011;36795;45.028;38.968;2024-01-25T11:37:00;9.15;;;2.60;;
49384;SDS011;36795;45.028;38.968;2024-01-25T11:39:47;8.15;;;2.00;;
49384;SDS011;36795;45.028;38.968;2024-01-25T11:42:33;11.00;;;3.10;;
49384;SDS011;36795;45.028;38.968;2024-01-25T11:45:19;12.45;;;3.05;;
49384;SDS011;36795;45.028;38.968;2024-01-25T11:48:06;10.82;;;2.60;;
49384;SDS011;36795;45.028;38.968;2024-01-25T11:50:52;7.93;;;2.00;;
49384;SDS011;36795;45.028;38.968;2024-01-25T11:53:38;7.75;;;2.08;;
49384;SDS011;36795;45.028;38.968;2024-01-25T11:56:28;9.40;;;2.42;;
49384;SDS011;36795;45.028;38.968;2024-01-25T11:59:17;11.23;;;2.78;;
49384;SDS011;36795;45.028;38.968;2024-01-25T12:02:03;11.02;;;3.12;;
49384;SDS011;36795;45.028;38.968;2024-01-25T12:04:50;13.35;;;3.20;;
49384;SDS011;36795;45.028;38.968;2024-01-25T12:07:38;9.38;;;2.80;;
49384;SDS011;36795;45.028;38.968;2024-01-25T12:10:26;12.82;;;3.10;;
49384;SDS011;36795;45.028;38.968;2024-01-25T12:13:11;15.15;;;4.00;;
49384;SDS011;36795;45.028;38.968;2024-01-25T12:15:58;11.40;;;2.55;;
49384;SDS011;36795;45.028;38.968;2024-01-25T12:18:45;10.70;;;2.65;;
49384;SDS011;36795;45.028;38.968;2024-01-25T12:21:35;7.40;;;2.65;;
49384;SDS011;36795;45.028;38.968;2024-01-25T12:24:21;13.38;;;2.80;;
49384;SDS011;36795;45.028;38.968;2024-01-25T12:27:08;12.20;;;2.90;;
49384;SDS011;36795;45.028;38.968;2024-01-25T12:29:55;10.88;;;2.72;;
49384;SDS011;36795;45.028;38.968;2024-01-25T12:32:41;7.80;;;2.05;;
49384;SDS011;36795;45.028;38.968;2024-01-25T12:35:27;9.98;;;2.17;;
49384;SDS011;36795;45.028;38.968;2024-01-25T12:38:14;8.38;;;2.80;;
49384;SDS011;36795;45.028;38.968;2024-01-25T12:41:01;7.55;;;2.00;;
49384;SDS011;36795;45.028;38.968;2024-01-25T12:43:47;6.03;;;1.95;;
49384;SDS011;36795;45.028;38.968;2024-01-25T12:46:33;6.97;;;2.00;;
49384;SDS011;36795;45.028;38.968;2024-01-25T12:49:20;6.90;;;1.92;;
49384;SDS011;36795;45.028;38.968;2024-01-25T12:52:08;5.65;;;1.80;;
49384;SDS011;36795;45.028;38.968;2024-01-25T12:54:55;5.95;;;2.03;;
49384;SDS011;36795;45.028;38.968;2024-01-25T12:57:41;9.18;;;2.62;;
49384;SDS011;36795;45.028;38.968;2024-01-25T13:00:27;10.13;;;2.55;;
49384;SDS011;36795;45.028;38.968;2024-01-25T13:03:13;5.07;;;2.08;;
49384;SDS011;36795;45.028;38.968;2024-01-25T13:05:59;7.20;;;2.30;;
49384;SDS011;36795;45.028;38.968;2024-01-25T13:08:48;51.53;;;28.67;;
49384;SDS011;36795;45.028;38.968;2024-01-25T13:11:34;6.80;;;2.00;;
49384;SDS011;36795;45.028;38.968;2024-01-25T13:14:21;5.53;;;1.92;;
49384;SDS011;36795;45.028;38.968;2024-01-25T13:17:11;7.53;;;2.00;;
49384;SDS011;36795;45.028;38.968;2024-01-25T13:19:57;4.47;;;1.50;;
49384;SDS011;36795;45.028;38.968;2024-01-25T13:22:43;6.15;;;1.75;;
49384;SDS011;36795;45.028;38.968;2024-01-25T13:25:29;6.40;;;1.80;;
49384;SDS011;36795;45.028;38.968;2024-01-25T13:28:22;4.82;;;1.70;;
49384;SDS011;36795;45.028;38.968;2024-01-25T13:31:11;7.37;;;1.65;;
49384;SDS011;36795;45.028;38.968;2024-01-25T13:34:03;6.15;;;1.80;;
49384;SDS011;36795;45.028;38.968;2024-01-25T13:36:50;6.85;;;2.05;;
49384;SDS011;36795;45.028;38.968;2024-01-25T13:39:36;6.95;;;1.80;;
49384;SDS011;36795;45.028;38.968;2024-01-25T13:42:23;6.87;;;2.20;;
49384;SDS011;36795;45.028;38.968;2024-01-25T13:45:11;7.80;;;2.25;;
49384;SDS011;36795;45.028;38.968;2024-01-25T13:48:01;8.00;;;2.22;;
49384;SDS011;36795;45.028;38.968;2024-01-25T13:50:48;6.15;;;1.90;;
49384;SDS011;36795;45.028;38.968;2024-01-25T13:53:34;9.57;;;2.10;;
49384;SDS011;36795;45.028;38.968;2024-01-25T13:56:21;3.67;;;1.42;;
49384;SDS011;36795;45.028;38.968;2024-01-25T13:59:06;6.85;;;1.62;;
49384;SDS011;36795;45.028;38.968;2024-01-25T14:01:53;5.15;;;1.60;;
49384;SDS011;36795;45.028;38.968;2024-01-25T14:04:39;4.50;;;1.45;;
49384;SDS011;36795;45.028;38.968;2024-01-25T14:07:25;5.95;;;1.17;;
49384;SDS011;36795;45.028;38.968;2024-01-25T14:10:11;3.03;;;1.27;;
49384;SDS011;36795;45.028;38.968;2024-01-25T14:12:57;6.15;;;1.50;;
49384;SDS011;36795;45.028;38.968;2024-01-25T14:15:43;4.25;;;1.23;;
49384;SDS011;36795;45.028;38.968;2024-01-25T14:18:35;1.40;;;1.10;;
49384;SDS011;36795;45.028;38.968;2024-01-25T14:21:25;4.22;;;1.65;;
49384;SDS011;36795;45.028;38.968;2024-01-25T14:24:11;10.35;;;3.08;;
49384;SDS011;36795;45.028;38.968;2024-01-25T14:26:58;10.73;;;3.08;;
49384;SDS011;36795;45.028;38.968;2024-01-25T14:29:43;8.82;;;2.80;;
49384;SDS011;36795;45.028;38.968;2024-01-25T14:32:30;11.25;;;3.45;;
49384;SDS011;36795;45.028;38.968;2024-01-25T14:35:15;13.18;;;3.87;;
49384;SDS011;36795;45.028;38.968;2024-01-25T14:38:02;13.62;;;4.10;;
49384;SDS011;36795;45.028;38.968;2024-01-25T14:40:48;10.82;;;3.10;;
49384;SDS011;36795;45.028;38.968;2024-01-25T14:43:34;17.58;;;4.53;;
49384;SDS011;36795;45.028;38.968;2024-01-25T14:46:23;12.32;;;2.78;;
49384;SDS011;36795;45.028;38.968;2024-01-25T14:49:10;12.15;;;3.00;;
49384;SDS011;36795;45.028;38.968;2024-01-25T14:51:56;11.80;;;2.50;;
49384;SDS011;36795;45.028;38.968;2024-01-25T14:54:43;7.25;;;2.30;;
49384;SDS011;36795;45.028;38.968;2024-01-25T14:57:30;7.22;;;2.15;;
49384;SDS011;36795;45.028;38.968;2024-01-25T15:00:16;12.65;;;2.90;;
49384;SDS011;36795;45.028;38.968;2024-01-25T15:03:05;12.27;;;3.28;;
49384;SDS011;36795;45.028;38.968;2024-01-25T15:05:51;17.77;;;4.25;;
49384;SDS011;36795;45.028;38.968;2024-01-25T15:08:37;13.52;;;4.00;;
49384;SDS011;36795;45.028;38.968;2024-01-25T15:11:23;15.07;;;4.12;;
49384;SDS011;36795;45.028;38.968;2024-01-25T15:14:09;18.35;;;4.57;;
49384;SDS011;36795;45.028;38.968;2024-01-25T15:16:55;15.45;;;3.90;;
49384;SDS011;36795;45.028;38.968;2024-01-25T15:19:41;12.77;;;3.12;;
49384;SDS011;36795;45.028;38.968;2024-01-25T15:22:29;13.27;;;3.08;;
49384;SDS011;36795;45.028;38.968;2024-01-25T15:25:16;17.58;;;3.20;;
49384;SDS011;36795;45.028;38.968;2024-01-25T15:28:03;12.32;;;2.50;;
49384;SDS011;36795;45.028;38.968;2024-01-25T15:30:49;10.27;;;2.28;;
49384;SDS011;36795;45.028;38.968;2024-01-25T15:33:35;14.40;;;3.08;;
49384;SDS011;36795;45.028;38.968;2024-01-25T15:36:21;10.85;;;2.75;;
49384;SDS011;36795;45.028;38.968;2024-01-25T15:39:09;10.65;;;2.10;;
49384;SDS011;36795;45.028;38.968;2024-01-25T15:41:55;15.88;;;3.30;;
49384;SDS011;36795;45.028;38.968;2024-01-25T15:44:41;16.20;;;2.67;;
49384;SDS011;36795;45.028;38.968;2024-01-25T15:47:27;14.38;;;2.83;;
49384;SDS011;36795;45.028;38.968;2024-01-25T15:50:13;12.93;;;2.97;;
49384;SDS011;36795;45.028;38.968;2024-01-25T15:52:59;15.98;;;3.35;;
49384;SDS011;36795;45.028;38.968;2024-01-25T15:55:45;20.45;;;5.55;;
49384;SDS011;36795;45.028;38.968;2024-01-25T15:58:31;11.65;;;2.87;;
49384;SDS011;36795;45.028;38.968;2024-01-25T16:01:17;14.95;;;2.90;;
49384;SDS011;36795;45.028;38.968;2024-01-25T16:04:04;12.68;;;2.83;;
49384;SDS011;36795;45.028;38.968;2024-01-25T16:06:49;13.90;;;3.70;;
49384;SDS011;36795;45.028;38.968;2024-01-25T16:09:36;19.83;;;4.35;;
49384;SDS011;36795;45.028;38.968;2024-01-25T16:12:23;16.05;;;3.80;;
49384;SDS011;36795;45.028;38.968;2024-01-25T16:15:09;15.73;;;3.90;;
49384;SDS011;36795;45.028;38.968;2024-01-25T16:17:55;9.50;;;3.00;;
49384;SDS011;36795;45.028;38.968;2024-01-25T16:20:42;11.35;;;3.20;;
49384;SDS011;36795;45.028;38.968;2024-01-25T16:23:27;10.45;;;2.90;;
49384;SDS011;36795;45.028;38.968;2024-01-25T16:26:14;10.73;;;2.62;;